sensor_id;sensor_type;location;lat;lon;timestamp;P1;P2;P0
57563;PMS7003;43400;45.926;6.724;2023-04-03T00:02:16;2.00;2.00;2.00
57563;PMS7003;43400;45.926;6.724;2023-04-03T00:04:48;2.25;2.25;2.00
57563;PMS7003;43400;45.926;6.724;2023-04-03T00:07:20;3.00;3.00;3.00
57563;PMS7003;43400;45.926;6.724;2023-04-03T00:09:51;4.00;3.25;3.00
57563;PMS7003;43400;45.926;6.724;2023-04-03T00:12:24;3.60;3.60;2.00
57563;PMS7003;43400;45.926;6.724;2023-04-03T00:14:56;3.33;3.33;3.00
57563;PMS7003;43400;45.926;6.724;2023-04-03T00:17:28;2.25;2.25;2.00
57563;PMS7003;43400;45.926;6.724;2023-04-03T00:20:00;2.80;2.80;2.00
57563;PMS7003;43400;45.926;6.724;2023-04-03T00:22:35;3.25;3.25;3.00
57563;PMS7003;43400;45.926;6.724;2023-04-03T00:25:07;3.60;3.60;3.00
57563;PMS7003;43400;45.926;6.724;2023-04-03T00:27:42;3.00;3.00;2.00
57563;PMS7003;43400;45.926;6.724;2023-04-03T00:30:15;3.00;3.00;2.00
57563;PMS7003;43400;45.926;6.724;2023-04-03T00:32:51;4.00;4.00;3.00
57563;PMS7003;43400;45.926;6.724;2023-04-03T00:35:24;4.50;4.00;3.00
57563;PMS7003;43400;45.926;6.724;2023-04-03T00:37:55;4.00;4.00;3.00
57563;PMS7003;43400;45.926;6.724;2023-04-03T00:40:27;3.80;3.80;3.00
57563;PMS7003;43400;45.926;6.724;2023-04-03T00:43:14;4.00;4.00;3.00
57563;PMS7003;43400;45.926;6.724;2023-04-03T00:45:55;6.00;4.25;3.75
57563;PMS7003;43400;45.926;6.724;2023-04-03T00:48:32;4.00;4.00;4.00
57563;PMS7003;43400;45.926;6.724;2023-04-03T00:51:11;4.20;3.00;2.80
57563;PMS7003;43400;45.926;6.724;2023-04-03T00:53:59;3.60;3.60;3.00
57563;PMS7003;43400;45.926;6.724;2023-04-03T00:56:33;6.00;5.50;3.00
57563;PMS7003;43400;45.926;6.724;2023-04-03T00:59:10;6.00;4.00;3.00
57563;PMS7003;43400;45.926;6.724;2023-04-03T01:01:47;6.00;6.00;3.00
57563;PMS7003;43400;45.926;6.724;2023-04-03T01:07:01;6.00;5.50;4.00
57563;PMS7003;43400;45.926;6.724;2023-04-03T01:09:37;6.00;6.00;4.00
57563;PMS7003;43400;45.926;6.724;2023-04-03T01:12:16;6.25;6.00;5.50
57563;PMS7003;43400;45.926;6.724;2023-04-03T01:14:54;4.50;4.50;3.00
57563;PMS7003;43400;45.926;6.724;2023-04-03T01:17:34;4.00;3.60;3.60
57563;PMS7003;43400;45.926;6.724;2023-04-03T01:25:51;5.00;4.75;3.50
57563;PMS7003;43400;45.926;6.724;2023-04-03T01:31:02;5.00;3.50;3.00
57563;PMS7003;43400;45.926;6.724;2023-04-03T01:33:50;6.80;6.00;3.00
57563;PMS7003;43400;45.926;6.724;2023-04-03T01:36:23;6.00;6.00;5.00
57563;PMS7003;43400;45.926;6.724;2023-04-03T01:38:56;4.40;3.60;3.00
57563;PMS7003;43400;45.926;6.724;2023-04-03T01:41:29;5.20;5.20;3.00
57563;PMS7003;43400;45.926;6.724;2023-04-03T01:44:01;6.00;6.00;4.00
57563;PMS7003;43400;45.926;6.724;2023-04-03T01:46:32;4.60;4.60;3.00
57563;PMS7003;43400;45.926;6.724;2023-04-03T01:49:04;6.00;6.00;5.00
57563;PMS7003;43400;45.926;6.724;2023-04-03T01:51:36;4.20;4.20;3.40
57563;PMS7003;43400;45.926;6.724;2023-04-03T01:54:08;5.40;5.40;4.80
57563;PMS7003;43400;45.926;6.724;2023-04-03T01:56:39;6.00;6.00;4.00
57563;PMS7003;43400;45.926;6.724;2023-04-03T01:59:11;4.00;4.00;4.00
57563;PMS7003;43400;45.926;6.724;2023-04-03T02:01:42;7.00;6.00;4.60
57563;PMS7003;43400;45.926;6.724;2023-04-03T02:04:14;5.20;5.20;4.40
57563;PMS7003;43400;45.926;6.724;2023-04-03T02:06:46;6.00;6.00;4.00
57563;PMS7003;43400;45.926;6.724;2023-04-03T02:09:18;4.50;3.75;3.00
57563;PMS7003;43400;45.926;6.724;2023-04-03T02:11:49;6.20;6.20;4.00
57563;PMS7003;43400;45.926;6.724;2023-04-03T02:14:21;4.40;4.40;3.20
57563;PMS7003;43400;45.926;6.724;2023-04-03T02:16:52;7.60;6.60;4.40
57563;PMS7003;43400;45.926;6.724;2023-04-03T02:19:24;4.80;4.80;3.80
57563;PMS7003;43400;45.926;6.724;2023-04-03T02:21:56;7.00;6.25;5.00
57563;PMS7003;43400;45.926;6.724;2023-04-03T02:24:27;6.75;6.75;6.00
57563;PMS7003;43400;45.926;6.724;2023-04-03T02:26:59;6.20;5.00;3.40
57563;PMS7003;43400;45.926;6.724;2023-04-03T02:29:30;7.20;7.00;5.60
57563;PMS7003;43400;45.926;6.724;2023-04-03T02:32:02;5.25;5.25;5.00
57563;PMS7003;43400;45.926;6.724;2023-04-03T02:34:34;6.25;6.00;4.50
57563;PMS7003;43400;45.926;6.724;2023-04-03T02:37:05;4.75;4.75;4.75
57563;PMS7003;43400;45.926;6.724;2023-04-03T02:39:37;7.40;6.60;6.00
57563;PMS7003;43400;45.926;6.724;2023-04-03T02:42:09;9.20;8.00;6.00
57563;PMS7003;43400;45.926;6.724;2023-04-03T02:44:40;7.25;6.25;5.00
57563;PMS7003;43400;45.926;6.724;2023-04-03T02:47:12;5.75;5.75;5.00
57563;PMS7003;43400;45.926;6.724;2023-04-03T02:49:44;9.20;7.20;6.00
57563;PMS7003;43400;45.926;6.724;2023-04-03T02:52:15;6.00;6.00;6.00
57563;PMS7003;43400;45.926;6.724;2023-04-03T02:54:47;6.00;6.00;4.75
57563;PMS7003;43400;45.926;6.724;2023-04-03T02:57:18;5.75;5.00;5.00
57563;PMS7003;43400;45.926;6.724;2023-04-03T02:59:50;6.20;6.20;5.00
57563;PMS7003;43400;45.926;6.724;2023-04-03T03:02:22;6.00;6.00;4.00
57563;PMS7003;43400;45.926;6.724;2023-04-03T03:04:53;7.33;7.00;6.00
57563;PMS7003;43400;45.926;6.724;2023-04-03T03:07:24;6.00;6.00;5.00
57563;PMS7003;43400;45.926;6.724;2023-04-03T03:09:56;6.20;6.20;6.00
57563;PMS7003;43400;45.926;6.724;2023-04-03T03:12:27;7.20;6.60;5.00
57563;PMS7003;43400;45.926;6.724;2023-04-03T03:14:59;7.00;6.33;6.00
57563;PMS7003;43400;45.926;6.724;2023-04-03T03:17:30;5.00;5.00;4.00
57563;PMS7003;43400;45.926;6.724;2023-04-03T03:20:03;5.00;5.00;3.00
57563;PMS7003;43400;45.926;6.724;2023-04-03T03:22:35;10.00;7.20;6.00
57563;PMS7003;43400;45.926;6.724;2023-04-03T03:25:07;6.00;6.00;5.00
57563;PMS7003;43400;45.926;6.724;2023-04-03T03:27:39;6.40;6.40;5.80
57563;PMS7003;43400;45.926;6.724;2023-04-03T03:30:11;6.60;5.60;5.00
57563;PMS7003;43400;45.926;6.724;2023-04-03T03:32:43;6.00;5.00;5.00
57563;PMS7003;43400;45.926;6.724;2023-04-03T03:35:14;8.00;8.00;5.20
57563;PMS7003;43400;45.926;6.724;2023-04-03T03:37:46;5.60;5.60;4.20
57563;PMS7003;43400;45.926;6.724;2023-04-03T03:40:17;6.80;6.80;5.40
57563;PMS7003;43400;45.926;6.724;2023-04-03T03:42:49;7.80;7.00;5.40
57563;PMS7003;43400;45.926;6.724;2023-04-03T03:45:21;5.50;5.50;5.00
57563;PMS7003;43400;45.926;6.724;2023-04-03T03:47:52;5.60;5.60;4.20
57563;PMS7003;43400;45.926;6.724;2023-04-03T03:50:24;6.20;6.20;6.00
57563;PMS7003;43400;45.926;6.724;2023-04-03T03:52:55;6.00;6.00;5.60
57563;PMS7003;43400;45.926;6.724;2023-04-03T03:55:27;7.00;7.00;6.00
57563;PMS7003;43400;45.926;6.724;2023-04-03T03:57:58;8.00;8.00;7.00
57563;PMS7003;43400;45.926;6.724;2023-04-03T04:00:30;11.00;10.50;6.25
57563;PMS7003;43400;45.926;6.724;2023-04-03T04:03:02;6.20;6.20;6.00
57563;PMS7003;43400;45.926;6.724;2023-04-03T04:05:33;11.00;8.25;6.00
57563;PMS7003;43400;45.926;6.724;2023-04-03T04:08:05;6.60;6.60;5.60
57563;PMS7003;43400;45.926;6.724;2023-04-03T04:10:36;7.00;7.00;6.00
57563;PMS7003;43400;45.926;6.724;2023-04-03T04:13:08;5.00;5.00;4.60
57563;PMS7003;43400;45.926;6.724;2023-04-03T04:15:40;7.25;7.25;5.75
57563;PMS7003;43400;45.926;6.724;2023-04-03T04:18:12;6.00;6.00;5.00
57563;PMS7003;43400;45.926;6.724;2023-04-03T04:20:45;6.80;6.40;5.40
57563;PMS7003;43400;45.926;6.724;2023-04-03T04:23:17;6.25;6.25;5.00
57563;PMS7003;43400;45.926;6.724;2023-04-03T04:25:49;7.75;6.75;5.25
57563;PMS7003;43400;45.926;6.724;2023-04-03T04:28:22;8.00;7.00;6.00
57563;PMS7003;43400;45.926;6.724;2023-04-03T04:30:53;6.60;6.60;5.00
57563;PMS7003;43400;45.926;6.724;2023-04-03T04:33:25;6.60;6.60;6.00
57563;PMS7003;43400;45.926;6.724;2023-04-03T04:35:56;7.00;6.60;6.00
57563;PMS7003;43400;45.926;6.724;2023-04-03T04:38:28;6.00;5.75;5.75
57563;PMS7003;43400;45.926;6.724;2023-04-03T04:41:00;8.50;8.50;6.00
57563;PMS7003;43400;45.926;6.724;2023-04-03T04:43:31;7.20;7.20;6.20
57563;PMS7003;43400;45.926;6.724;2023-04-03T04:46:06;6.60;6.00;6.00
57563;PMS7003;43400;45.926;6.724;2023-04-03T04:48:39;7.75;7.00;6.00
57563;PMS7003;43400;45.926;6.724;2023-04-03T04:51:10;8.00;7.60;6.00
57563;PMS7003;43400;45.926;6.724;2023-04-03T04:53:42;6.00;6.00;5.00
57563;PMS7003;43400;45.926;6.724;2023-04-03T04:56:14;6.60;6.60;5.00
57563;PMS7003;43400;45.926;6.724;2023-04-03T04:58:46;7.00;6.40;5.80
57563;PMS7003;43400;45.926;6.724;2023-04-03T05:01:17;6.75;6.75;5.75
57563;PMS7003;43400;45.926;6.724;2023-04-03T05:03:49;8.00;8.00;7.00
57563;PMS7003;43400;45.926;6.724;2023-04-03T05:06:20;5.60;5.60;5.00
57563;PMS7003;43400;45.926;6.724;2023-04-03T05:08:52;7.00;6.00;5.00
57563;PMS7003;43400;45.926;6.724;2023-04-03T05:11:23;5.60;5.60;5.00
57563;PMS7003;43400;45.926;6.724;2023-04-03T05:13:55;6.25;6.00;4.75
57563;PMS7003;43400;45.926;6.724;2023-04-03T05:16:26;6.00;6.00;5.00
57563;PMS7003;43400;45.926;6.724;2023-04-03T05:18:58;7.00;7.00;6.00
57563;PMS7003;43400;45.926;6.724;2023-04-03T05:21:30;10.50;7.50;6.75
57563;PMS7003;43400;45.926;6.724;2023-04-03T05:24:02;7.50;7.50;7.00
57563;PMS7003;43400;45.926;6.724;2023-04-03T05:26:33;8.40;7.80;6.20
57563;PMS7003;43400;45.926;6.724;2023-04-03T05:29:05;8.00;8.00;6.00
57563;PMS7003;43400;45.926;6.724;2023-04-03T05:31:36;9.40;8.40;7.00
57563;PMS7003;43400;45.926;6.724;2023-04-03T05:34:08;15.50;13.00;10.75
57563;PMS7003;43400;45.926;6.724;2023-04-03T05:36:40;15.60;15.20;11.00
57563;PMS7003;43400;45.926;6.724;2023-04-03T05:39:11;17.25;17.00;12.00
57563;PMS7003;43400;45.926;6.724;2023-04-03T05:41:43;17.20;17.20;11.80
57563;PMS7003;43400;45.926;6.724;2023-04-03T05:44:14;15.80;15.80;11.00
57563;PMS7003;43400;45.926;6.724;2023-04-03T05:46:46;16.67;16.33;11.00
57563;PMS7003;43400;45.926;6.724;2023-04-03T05:49:17;24.80;23.40;16.00
57563;PMS7003;43400;45.926;6.724;2023-04-03T05:51:49;17.25;17.25;12.25
57563;PMS7003;43400;45.926;6.724;2023-04-03T05:54:25;15.60;15.40;12.60
57563;PMS7003;43400;45.926;6.724;2023-04-03T05:56:58;17.00;17.00;11.00
57563;PMS7003;43400;45.926;6.724;2023-04-03T05:59:30;16.50;15.75;11.25
57563;PMS7003;43400;45.926;6.724;2023-04-03T06:02:01;17.00;15.00;12.50
57563;PMS7003;43400;45.926;6.724;2023-04-03T06:04:32;18.25;17.75;13.25
57563;PMS7003;43400;45.926;6.724;2023-04-03T06:07:04;17.75;17.75;12.00
57563;PMS7003;43400;45.926;6.724;2023-04-03T06:09:36;15.20;15.20;11.40
57563;PMS7003;43400;45.926;6.724;2023-04-03T06:12:08;14.40;14.40;11.00
57563;PMS7003;43400;45.926;6.724;2023-04-03T06:14:40;13.00;12.20;11.00
57563;PMS7003;43400;45.926;6.724;2023-04-03T06:17:11;11.00;11.00;9.40
57563;PMS7003;43400;45.926;6.724;2023-04-03T06:19:43;13.80;12.80;9.00
57563;PMS7003;43400;45.926;6.724;2023-04-03T06:22:15;13.25;12.00;8.00
57563;PMS7003;43400;45.926;6.724;2023-04-03T06:24:47;12.00;12.00;8.00
57563;PMS7003;43400;45.926;6.724;2023-04-03T06:27:19;12.75;12.00;9.00
57563;PMS7003;43400;45.926;6.724;2023-04-03T06:29:50;15.60;13.80;11.00
57563;PMS7003;43400;45.926;6.724;2023-04-03T06:32:22;15.00;13.50;11.00
57563;PMS7003;43400;45.926;6.724;2023-04-03T06:34:53;16.25;16.00;11.00
57563;PMS7003;43400;45.926;6.724;2023-04-03T06:37:24;13.75;12.75;8.00
57563;PMS7003;43400;45.926;6.724;2023-04-03T06:39:56;12.00;11.00;8.00
57563;PMS7003;43400;45.926;6.724;2023-04-03T06:42:30;9.00;9.00;7.80
57563;PMS7003;43400;45.926;6.724;2023-04-03T06:45:02;13.80;12.00;8.00
57563;PMS7003;43400;45.926;6.724;2023-04-03T06:47:33;12.50;12.50;9.50
57563;PMS7003;43400;45.926;6.724;2023-04-03T06:50:05;14.80;13.80;9.80
57563;PMS7003;43400;45.926;6.724;2023-04-03T06:52:37;13.00;13.00;9.00
57563;PMS7003;43400;45.926;6.724;2023-04-03T06:55:09;11.80;11.80;8.00
57563;PMS7003;43400;45.926;6.724;2023-04-03T06:57:40;12.25;12.25;8.25
57563;PMS7003;43400;45.926;6.724;2023-04-03T07:00:12;13.00;13.00;11.25
57563;PMS7003;43400;45.926;6.724;2023-04-03T07:02:44;13.20;13.20;10.20
57563;PMS7003;43400;45.926;6.724;2023-04-03T07:05:15;15.67;14.67;11.33
57563;PMS7003;43400;45.926;6.724;2023-04-03T07:07:47;16.60;15.60;11.80
57563;PMS7003;43400;45.926;6.724;2023-04-03T07:10:18;16.40;14.80;11.00
57563;PMS7003;43400;45.926;6.724;2023-04-03T07:12:50;15.20;15.20;9.00
57563;PMS7003;43400;45.926;6.724;2023-04-03T07:15:22;12.00;12.00;11.00
57563;PMS7003;43400;45.926;6.724;2023-04-03T07:17:53;13.00;13.00;9.50
57563;PMS7003;43400;45.926;6.724;2023-04-03T07:20:25;12.25;12.25;9.00
57563;PMS7003;43400;45.926;6.724;2023-04-03T07:22:56;16.25;13.25;9.00
57563;PMS7003;43400;45.926;6.724;2023-04-03T07:25:28;12.80;12.00;9.00
57563;PMS7003;43400;45.926;6.724;2023-04-03T07:28:00;14.67;14.67;11.00
57563;PMS7003;43400;45.926;6.724;2023-04-03T07:30:31;12.25;12.25;8.50
57563;PMS7003;43400;45.926;6.724;2023-04-03T07:33:03;13.50;12.25;9.50
57563;PMS7003;43400;45.926;6.724;2023-04-03T07:35:34;12.50;12.25;9.00
57563;PMS7003;43400;45.926;6.724;2023-04-03T07:38:06;16.00;14.00;9.00
57563;PMS7003;43400;45.926;6.724;2023-04-03T07:40:38;17.00;13.00;9.00
57563;PMS7003;43400;45.926;6.724;2023-04-03T07:43:11;12.75;12.50;8.50
57563;PMS7003;43400;45.926;6.724;2023-04-03T07:45:43;14.00;14.00;10.25
57563;PMS7003;43400;45.926;6.724;2023-04-03T07:48:16;13.50;13.50;9.00
57563;PMS7003;43400;45.926;6.724;2023-04-03T07:50:49;13.50;13.50;9.00
57563;PMS7003;43400;45.926;6.724;2023-04-03T07:53:21;12.00;12.00;8.25
57563;PMS7003;43400;45.926;6.724;2023-04-03T07:55:53;13.25;12.75;11.00
57563;PMS7003;43400;45.926;6.724;2023-04-03T07:58:25;11.50;11.00;8.50
57563;PMS7003;43400;45.926;6.724;2023-04-03T08:00:56;11.75;11.75;9.00
57563;PMS7003;43400;45.926;6.724;2023-04-03T08:03:28;10.25;9.50;7.00
57563;PMS7003;43400;45.926;6.724;2023-04-03T08:06:03;11.00;11.00;8.00
57563;PMS7003;43400;45.926;6.724;2023-04-03T08:08:35;12.00;11.00;8.00
57563;PMS7003;43400;45.926;6.724;2023-04-03T08:11:07;11.80;10.00;8.00
57563;PMS7003;43400;45.926;6.724;2023-04-03T08:13:40;9.20;9.20;7.80
57563;PMS7003;43400;45.926;6.724;2023-04-03T08:16:14;9.00;8.60;6.00
57563;PMS7003;43400;45.926;6.724;2023-04-03T08:18:49;9.00;9.00;7.20
57563;PMS7003;43400;45.926;6.724;2023-04-03T08:21:20;8.00;7.00;6.00
57563;PMS7003;43400;45.926;6.724;2023-04-03T08:23:52;7.00;7.00;6.00
57563;PMS7003;43400;45.926;6.724;2023-04-03T08:26:24;7.25;7.25;6.25
57563;PMS7003;43400;45.926;6.724;2023-04-03T08:28:55;8.00;7.00;6.00
57563;PMS7003;43400;45.926;6.724;2023-04-03T08:31:27;10.20;10.20;7.80
57563;PMS7003;43400;45.926;6.724;2023-04-03T08:33:59;8.20;7.80;6.00
57563;PMS7003;43400;45.926;6.724;2023-04-03T08:36:30;8.00;6.20;5.20
57563;PMS7003;43400;45.926;6.724;2023-04-03T08:39:02;7.00;7.00;6.00
57563;PMS7003;43400;45.926;6.724;2023-04-03T08:49:59;6.00;6.00;4.00
57563;PMS7003;43400;45.926;6.724;2023-04-03T08:52:35;3.00;3.00;2.50
57563;PMS7003;43400;45.926;6.724;2023-04-03T08:58:04;8.00;6.20;4.40
57563;PMS7003;43400;45.926;6.724;2023-04-03T09:00:44;4.75;4.75;4.00
57563;PMS7003;43400;45.926;6.724;2023-04-03T09:03:18;5.20;5.20;3.60
57563;PMS7003;43400;45.926;6.724;2023-04-03T09:06:00;3.00;3.00;3.00
57563;PMS7003;43400;45.926;6.724;2023-04-03T09:08:43;5.80;5.80;4.80
57563;PMS7003;43400;45.926;6.724;2023-04-03T09:11:25;4.00;3.20;2.20
57563;PMS7003;43400;45.926;6.724;2023-04-03T09:14:13;6.20;5.40;4.00
57563;PMS7003;43400;45.926;6.724;2023-04-03T09:23:20;4.80;3.80;3.00
57563;PMS7003;43400;45.926;6.724;2023-04-03T09:26:09;1.00;1.00;1.00
57563;PMS7003;43400;45.926;6.724;2023-04-03T09:28:48;4.00;4.00;4.00
57563;PMS7003;43400;45.926;6.724;2023-04-03T09:31:23;3.20;3.20;3.00
57563;PMS7003;43400;45.926;6.724;2023-04-03T09:33:58;3.75;3.25;3.00
57563;PMS7003;43400;45.926;6.724;2023-04-03T09:36:47;3.00;3.00;2.00
57563;PMS7003;43400;45.926;6.724;2023-04-03T09:39:20;3.60;3.00;2.80
57563;PMS7003;43400;45.926;6.724;2023-04-03T09:44:32;3.00;2.00;2.00
57563;PMS7003;43400;45.926;6.724;2023-04-03T09:47:18;4.00;4.00;2.75
57563;PMS7003;43400;45.926;6.724;2023-04-03T09:52:46;3.20;3.00;2.00
57563;PMS7003;43400;45.926;6.724;2023-04-03T09:55:20;2.60;2.60;2.00
57563;PMS7003;43400;45.926;6.724;2023-04-03T09:57:57;2.00;2.00;2.00
57563;PMS7003;43400;45.926;6.724;2023-04-03T10:00:55;2.60;2.00;1.20
57563;PMS7003;43400;45.926;6.724;2023-04-03T10:03:35;1.60;1.60;1.00
57563;PMS7003;43400;45.926;6.724;2023-04-03T10:06:21;3.25;3.25;3.00
57563;PMS7003;43400;45.926;6.724;2023-04-03T10:08:59;2.75;2.75;2.00
57563;PMS7003;43400;45.926;6.724;2023-04-03T10:11:32;2.40;2.40;2.00
57563;PMS7003;43400;45.926;6.724;2023-04-03T10:14:03;2.60;2.60;2.60
57563;PMS7003;43400;45.926;6.724;2023-04-03T10:16:36;3.00;2.50;2.00
57563;PMS7003;43400;45.926;6.724;2023-04-03T10:22:04;2.00;2.00;2.00
57563;PMS7003;43400;45.926;6.724;2023-04-03T10:24:53;3.00;2.00;2.00
57563;PMS7003;43400;45.926;6.724;2023-04-03T10:40:57;2.60;2.60;2.00
57563;PMS7003;43400;45.926;6.724;2023-04-03T10:58:38;1.40;1.40;1.00
57563;PMS7003;43400;45.926;6.724;2023-04-03T11:01:13;1.00;1.00;1.00
57563;PMS7003;43400;45.926;6.724;2023-04-03T11:03:58;2.00;1.00;1.00
57563;PMS7003;43400;45.926;6.724;2023-04-03T11:06:32;1.20;1.20;1.00
57563;PMS7003;43400;45.926;6.724;2023-04-03T11:09:16;1.00;1.00;1.00
57563;PMS7003;43400;45.926;6.724;2023-04-03T11:11:54;1.00;1.00;1.00
57563;PMS7003;43400;45.926;6.724;2023-04-03T11:14:35;1.00;1.00;1.00
57563;PMS7003;43400;45.926;6.724;2023-04-03T11:17:28;1.00;1.00;1.00
57563;PMS7003;43400;45.926;6.724;2023-04-03T11:20:16;1.00;1.00;1.00
57563;PMS7003;43400;45.926;6.724;2023-04-03T11:22:52;1.00;1.00;1.00
57563;PMS7003;43400;45.926;6.724;2023-04-03T11:25:33;1.00;1.00;1.00
57563;PMS7003;43400;45.926;6.724;2023-04-03T11:28:11;1.00;1.00;1.00
57563;PMS7003;43400;45.926;6.724;2023-04-03T11:36:53;3.20;1.00;1.00
57563;PMS7003;43400;45.926;6.724;2023-04-03T11:39:30;1.00;1.00;1.00
57563;PMS7003;43400;45.926;6.724;2023-04-03T11:42:14;1.00;1.00;0.80
57563;PMS7003;43400;45.926;6.724;2023-04-03T11:50:54;0.20;0.20;0.00
57563;PMS7003;43400;45.926;6.724;2023-04-03T11:53:32;1.00;1.00;1.00
57563;PMS7003;43400;45.926;6.724;2023-04-03T12:01:49;1.00;1.00;1.00
57563;PMS7003;43400;45.926;6.724;2023-04-03T12:04:23;1.20;1.00;0.00
57563;PMS7003;43400;45.926;6.724;2023-04-03T12:07:01;0.00;0.00;0.00
57563;PMS7003;43400;45.926;6.724;2023-04-03T12:12:34;0.20;0.20;0.00
57563;PMS7003;43400;45.926;6.724;2023-04-03T12:38:51;0.00;0.00;0.00
57563;PMS7003;43400;45.926;6.724;2023-04-03T12:41:37;1.00;1.00;1.00
57563;PMS7003;43400;45.926;6.724;2023-04-03T12:47:01;0.50;0.50;0.50
57563;PMS7003;43400;45.926;6.724;2023-04-03T12:50:17;0.00;0.00;0.00
57563;PMS7003;43400;45.926;6.724;2023-04-03T12:53:36;1.00;1.00;0.00
57563;PMS7003;43400;45.926;6.724;2023-04-03T12:55:56;1.00;1.00;1.00
57563;PMS7003;43400;45.926;6.724;2023-04-03T12:58:28;0.00;0.00;0.00
57563;PMS7003;43400;45.926;6.724;2023-04-03T13:01:00;1.00;1.00;1.00
57563;PMS7003;43400;45.926;6.724;2023-04-03T13:03:34;1.00;1.00;0.00
57563;PMS7003;43400;45.926;6.724;2023-04-03T13:06:18;3.00;2.00;1.25
57563;PMS7003;43400;45.926;6.724;2023-04-03T13:08:56;1.00;1.00;0.75
57563;PMS7003;43400;45.926;6.724;2023-04-03T13:11:47;1.00;1.00;1.00
57563;PMS7003;43400;45.926;6.724;2023-04-03T13:14:21;1.00;1.00;1.00
57563;PMS7003;43400;45.926;6.724;2023-04-03T13:17:06;2.00;2.00;1.00
57563;PMS7003;43400;45.926;6.724;2023-04-03T13:19:44;3.00;2.00;1.60
57563;PMS7003;43400;45.926;6.724;2023-04-03T13:25:01;1.80;1.80;1.80
57563;PMS7003;43400;45.926;6.724;2023-04-03T13:27:38;2.50;2.50;2.50
57563;PMS7003;43400;45.926;6.724;2023-04-03T13:30:24;3.00;2.00;2.00
57563;PMS7003;43400;45.926;6.724;2023-04-03T13:33:01;2.00;2.00;1.60
57563;PMS7003;43400;45.926;6.724;2023-04-03T13:35:39;1.00;1.00;1.00
57563;PMS7003;43400;45.926;6.724;2023-04-03T13:40:56;1.00;1.00;1.00
57563;PMS7003;43400;45.926;6.724;2023-04-03T13:43:31;2.00;2.00;2.00
57563;PMS7003;43400;45.926;6.724;2023-04-03T13:48:44;3.00;3.00;2.00
57563;PMS7003;43400;45.926;6.724;2023-04-03T13:51:26;2.00;2.00;1.20
57563;PMS7003;43400;45.926;6.724;2023-04-03T13:54:00;1.75;1.75;1.75
57563;PMS7003;43400;45.926;6.724;2023-04-03T13:56:44;2.00;2.00;1.50
57563;PMS7003;43400;45.926;6.724;2023-04-03T14:04:46;1.00;1.00;1.00
57563;PMS7003;43400;45.926;6.724;2023-04-03T14:07:20;1.50;1.50;1.50
57563;PMS7003;43400;45.926;6.724;2023-04-03T14:09:52;2.00;2.00;2.00
57563;PMS7003;43400;45.926;6.724;2023-04-03T14:12:42;1.00;1.00;1.00
57563;PMS7003;43400;45.926;6.724;2023-04-03T14:17:54;1.00;1.00;1.00
57563;PMS7003;43400;45.926;6.724;2023-04-03T14:20:26;2.00;2.00;1.25
57563;PMS7003;43400;45.926;6.724;2023-04-03T14:22:59;1.00;1.00;1.00
57563;PMS7003;43400;45.926;6.724;2023-04-03T14:25:31;2.00;2.00;1.50
57563;PMS7003;43400;45.926;6.724;2023-04-03T14:28:14;1.00;1.00;1.00
57563;PMS7003;43400;45.926;6.724;2023-04-03T14:30:50;1.60;1.60;1.00
57563;PMS7003;43400;45.926;6.724;2023-04-03T14:33:22;1.00;1.00;1.00
57563;PMS7003;43400;45.926;6.724;2023-04-03T14:35:54;1.00;1.00;1.00
57563;PMS7003;43400;45.926;6.724;2023-04-03T14:38:27;2.00;2.00;1.75
57563;PMS7003;43400;45.926;6.724;2023-04-03T14:41:00;3.00;3.00;2.20
57563;PMS7003;43400;45.926;6.724;2023-04-03T14:43:32;1.00;1.00;1.00
57563;PMS7003;43400;45.926;6.724;2023-04-03T14:46:04;2.00;2.00;1.00
57563;PMS7003;43400;45.926;6.724;2023-04-03T14:48:36;2.00;2.00;1.80
57563;PMS7003;43400;45.926;6.724;2023-04-03T14:51:10;1.00;1.00;1.00
57563;PMS7003;43400;45.926;6.724;2023-04-03T14:53:43;1.60;1.60;1.60
57563;PMS7003;43400;45.926;6.724;2023-04-03T14:58:54;2.00;2.00;1.40
57563;PMS7003;43400;45.926;6.724;2023-04-03T15:01:28;3.50;2.50;2.00
57563;PMS7003;43400;45.926;6.724;2023-04-03T15:04:00;2.00;2.00;2.00
57563;PMS7003;43400;45.926;6.724;2023-04-03T15:06:32;2.00;2.00;2.00
57563;PMS7003;43400;45.926;6.724;2023-04-03T15:09:04;1.40;1.40;1.00
57563;PMS7003;43400;45.926;6.724;2023-04-03T15:11:36;2.00;2.00;2.00
57563;PMS7003;43400;45.926;6.724;2023-04-03T15:14:08;2.00;2.00;2.00
57563;PMS7003;43400;45.926;6.724;2023-04-03T15:16:41;3.00;2.00;2.00
57563;PMS7003;43400;45.926;6.724;2023-04-03T15:19:12;2.00;2.00;1.60
57563;PMS7003;43400;45.926;6.724;2023-04-03T15:21:44;3.00;3.00;2.50
57563;PMS7003;43400;45.926;6.724;2023-04-03T15:24:16;1.80;1.80;1.40
57563;PMS7003;43400;45.926;6.724;2023-04-03T15:26:47;3.00;3.00;3.00
57563;PMS7003;43400;45.926;6.724;2023-04-03T15:29:19;2.20;2.20;2.00
57563;PMS7003;43400;45.926;6.724;2023-04-03T15:31:50;2.25;2.25;2.25
57563;PMS7003;43400;45.926;6.724;2023-04-03T15:34:22;2.75;2.00;1.75
57563;PMS7003;43400;45.926;6.724;2023-04-03T15:36:54;3.00;2.00;2.00
57563;PMS7003;43400;45.926;6.724;2023-04-03T15:39:26;2.00;2.00;2.00
57563;PMS7003;43400;45.926;6.724;2023-04-03T15:41:58;2.20;2.20;2.00
57563;PMS7003;43400;45.926;6.724;2023-04-03T15:44:29;2.00;2.00;2.00
57563;PMS7003;43400;45.926;6.724;2023-04-03T15:47:01;3.00;2.00;2.00
57563;PMS7003;43400;45.926;6.724;2023-04-03T15:49:33;3.00;3.00;2.00
57563;PMS7003;43400;45.926;6.724;2023-04-03T15:52:05;2.40;2.40;2.00
57563;PMS7003;43400;45.926;6.724;2023-04-03T15:54:37;4.00;4.00;3.00
57563;PMS7003;43400;45.926;6.724;2023-04-03T15:57:09;4.40;4.00;3.00
57563;PMS7003;43400;45.926;6.724;2023-04-03T15:59:41;2.00;2.00;2.00
57563;PMS7003;43400;45.926;6.724;2023-04-03T16:02:12;2.00;2.00;2.00
57563;PMS7003;43400;45.926;6.724;2023-04-03T16:04:44;3.00;2.00;2.00
57563;PMS7003;43400;45.926;6.724;2023-04-03T16:07:16;2.00;2.00;2.00
57563;PMS7003;43400;45.926;6.724;2023-04-03T16:09:47;4.00;4.00;3.20
57563;PMS7003;43400;45.926;6.724;2023-04-03T16:12:19;2.00;2.00;2.00
57563;PMS7003;43400;45.926;6.724;2023-04-03T16:14:50;3.00;3.00;2.00
57563;PMS7003;43400;45.926;6.724;2023-04-03T16:17:22;2.33;2.33;2.00
57563;PMS7003;43400;45.926;6.724;2023-04-03T16:19:54;2.75;2.75;2.25
57563;PMS7003;43400;45.926;6.724;2023-04-03T16:22:26;3.00;3.00;2.00
57563;PMS7003;43400;45.926;6.724;2023-04-03T16:25:00;9.60;8.00;5.00
57563;PMS7003;43400;45.926;6.724;2023-04-03T16:27:32;3.00;3.00;3.00
57563;PMS7003;43400;45.926;6.724;2023-04-03T16:30:04;3.25;3.25;2.75
57563;PMS7003;43400;45.926;6.724;2023-04-03T16:32:38;5.75;5.75;4.50
57563;PMS7003;43400;45.926;6.724;2023-04-03T16:35:10;5.60;5.60;4.20
57563;PMS7003;43400;45.926;6.724;2023-04-03T16:37:42;4.50;4.50;4.00
57563;PMS7003;43400;45.926;6.724;2023-04-03T16:40:13;4.00;4.00;3.00
57563;PMS7003;43400;45.926;6.724;2023-04-03T16:42:45;4.50;4.00;3.00
57563;PMS7003;43400;45.926;6.724;2023-04-03T16:45:17;4.00;4.00;3.00
57563;PMS7003;43400;45.926;6.724;2023-04-03T16:47:48;3.20;3.20;3.00
57563;PMS7003;43400;45.926;6.724;2023-04-03T16:50:20;3.00;3.00;3.00
57563;PMS7003;43400;45.926;6.724;2023-04-03T16:52:51;4.00;4.00;3.75
57563;PMS7003;43400;45.926;6.724;2023-04-03T16:55:23;6.00;5.00;4.00
57563;PMS7003;43400;45.926;6.724;2023-04-03T16:57:55;5.00;4.00;3.20
57563;PMS7003;43400;45.926;6.724;2023-04-03T17:00:28;4.00;4.00;3.00
57563;PMS7003;43400;45.926;6.724;2023-04-03T17:03:01;3.00;3.00;3.00
57563;PMS7003;43400;45.926;6.724;2023-04-03T17:05:33;5.00;5.00;3.60
57563;PMS7003;43400;45.926;6.724;2023-04-03T17:08:04;5.00;5.00;4.00